sensor_id;sensor_type;location;lat;lon;timestamp;P1;durP1;ratioP1;P2;durP2;ratioP2
20185;SDS011;10252;48.792;8.582;2023-05-29T00:06:56;11.40;;;6.32;;
20185;SDS011;10252;48.792;8.582;2023-05-29T00:11:57;15.05;;;6.57;;
20185;SDS011;10252;48.792;8.582;2023-05-29T00:16:58;10.65;;;5.68;;
20185;SDS011;10252;48.792;8.582;2023-05-29T00:21:59;15.75;;;7.10;;
20185;SDS011;10252;48.792;8.582;2023-05-29T00:27:00;9.50;;;5.35;;
20185;SDS011;10252;48.792;8.582;2023-05-29T00:32:02;10.88;;;6.10;;
20185;SDS011;10252;48.792;8.582;2023-05-29T00:37:03;10.95;;;5.65;;
20185;SDS011;10252;48.792;8.582;2023-05-29T00:42:04;9.02;;;5.95;;
20185;SDS011;10252;48.792;8.582;2023-05-29T00:47:05;10.18;;;5.70;;
20185;SDS011;10252;48.792;8.582;2023-05-29T00:52:07;11.70;;;6.07;;
20185;SDS011;10252;48.792;8.582;2023-05-29T00:57:08;10.52;;;5.55;;
20185;SDS011;10252;48.792;8.582;2023-05-29T01:02:09;10.65;;;6.20;;
20185;SDS011;10252;48.792;8.582;2023-05-29T01:07:11;13.18;;;6.60;;
20185;SDS011;10252;48.792;8.582;2023-05-29T01:12:16;10.13;;;5.88;;
20185;SDS011;10252;48.792;8.582;2023-05-29T01:17:24;8.18;;;4.97;;
20185;SDS011;10252;48.792;8.582;2023-05-29T01:22:34;14.73;;;5.50;;
20185;SDS011;10252;48.792;8.582;2023-05-29T01:27:36;9.93;;;5.47;;
20185;SDS011;10252;48.792;8.582;2023-05-29T01:32:39;10.20;;;6.70;;
20185;SDS011;10252;48.792;8.582;2023-05-29T01:37:40;8.93;;;5.93;;
20185;SDS011;10252;48.792;8.582;2023-05-29T01:42:41;12.63;;;6.60;;
20185;SDS011;10252;48.792;8.582;2023-05-29T01:47:43;10.77;;;5.60;;
20185;SDS011;10252;48.792;8.582;2023-05-29T01:52:44;13.88;;;6.57;;
20185;SDS011;10252;48.792;8.582;2023-05-29T01:57:45;9.57;;;5.80;;
20185;SDS011;10252;48.792;8.582;2023-05-29T02:02:47;8.30;;;5.38;;
20185;SDS011;10252;48.792;8.582;2023-05-29T02:07:48;8.82;;;5.40;;
20185;SDS011;10252;48.792;8.582;2023-05-29T02:12:49;11.20;;;6.00;;
20185;SDS011;10252;48.792;8.582;2023-05-29T02:17:50;12.43;;;6.00;;
20185;SDS011;10252;48.792;8.582;2023-05-29T02:22:51;11.55;;;6.30;;
20185;SDS011;10252;48.792;8.582;2023-05-29T02:27:52;10.98;;;5.55;;
20185;SDS011;10252;48.792;8.582;2023-05-29T02:32:54;9.88;;;5.03;;
20185;SDS011;10252;48.792;8.582;2023-05-29T02:37:55;9.77;;;5.65;;
20185;SDS011;10252;48.792;8.582;2023-05-29T02:42:56;8.98;;;5.50;;
20185;SDS011;10252;48.792;8.582;2023-05-29T02:47:58;10.50;;;6.57;;
20185;SDS011;10252;48.792;8.582;2023-05-29T02:53:00;9.40;;;5.28;;
20185;SDS011;10252;48.792;8.582;2023-05-29T02:58:01;13.60;;;6.10;;
20185;SDS011;10252;48.792;8.582;2023-05-29T03:03:02;10.82;;;5.68;;
20185;SDS011;10252;48.792;8.582;2023-05-29T03:08:04;9.80;;;5.45;;
20185;SDS011;10252;48.792;8.582;2023-05-29T03:13:06;10.18;;;5.28;;
20185;SDS011;10252;48.792;8.582;2023-05-29T03:18:11;10.68;;;5.40;;
20185;SDS011;10252;48.792;8.582;2023-05-29T03:23:12;12.68;;;5.32;;
20185;SDS011;10252;48.792;8.582;2023-05-29T03:28:13;10.73;;;5.55;;
20185;SDS011;10252;48.792;8.582;2023-05-29T03:33:14;10.07;;;5.43;;
20185;SDS011;10252;48.792;8.582;2023-05-29T03:38:42;9.52;;;5.57;;
20185;SDS011;10252;48.792;8.582;2023-05-29T03:43:43;11.38;;;5.43;;
20185;SDS011;10252;48.792;8.582;2023-05-29T03:48:45;10.23;;;5.65;;
20185;SDS011;10252;48.792;8.582;2023-05-29T03:53:46;10.40;;;5.65;;
20185;SDS011;10252;48.792;8.582;2023-05-29T03:58:47;8.70;;;4.85;;
20185;SDS011;10252;48.792;8.582;2023-05-29T04:03:48;9.48;;;5.50;;
20185;SDS011;10252;48.792;8.582;2023-05-29T04:08:50;9.55;;;5.10;;
20185;SDS011;10252;48.792;8.582;2023-05-29T04:13:51;10.15;;;5.30;;
20185;SDS011;10252;48.792;8.582;2023-05-29T04:18:52;7.80;;;4.50;;
20185;SDS011;10252;48.792;8.582;2023-05-29T04:23:54;7.25;;;5.13;;
20185;SDS011;10252;48.792;8.582;2023-05-29T04:28:58;8.63;;;5.15;;
20185;SDS011;10252;48.792;8.582;2023-05-29T04:33:59;8.93;;;5.40;;
20185;SDS011;10252;48.792;8.582;2023-05-29T04:39:05;9.85;;;5.13;;
20185;SDS011;10252;48.792;8.582;2023-05-29T04:44:07;7.30;;;4.65;;
20185;SDS011;10252;48.792;8.582;2023-05-29T04:49:18;7.05;;;5.43;;
20185;SDS011;10252;48.792;8.582;2023-05-29T04:54:19;9.20;;;5.38;;
20185;SDS011;10252;48.792;8.582;2023-05-29T04:59:20;8.30;;;4.97;;
20185;SDS011;10252;48.792;8.582;2023-05-29T05:04:21;9.38;;;4.88;;
20185;SDS011;10252;48.792;8.582;2023-05-29T05:09:22;8.10;;;4.80;;
20185;SDS011;10252;48.792;8.582;2023-05-29T05:14:24;7.45;;;4.80;;
20185;SDS011;10252;48.792;8.582;2023-05-29T05:19:25;6.78;;;4.57;;
20185;SDS011;10252;48.792;8.582;2023-05-29T05:24:26;11.07;;;6.50;;
20185;SDS011;10252;48.792;8.582;2023-05-29T05:29:27;7.88;;;5.25;;
20185;SDS011;10252;48.792;8.582;2023-05-29T05:34:28;9.02;;;4.30;;
20185;SDS011;10252;48.792;8.582;2023-05-29T05:39:30;8.65;;;4.90;;
20185;SDS011;10252;48.792;8.582;2023-05-29T05:44:31;8.00;;;5.05;;
20185;SDS011;10252;48.792;8.582;2023-05-29T05:49:36;9.00;;;4.50;;
20185;SDS011;10252;48.792;8.582;2023-05-29T05:54:37;10.00;;;4.93;;
20185;SDS011;10252;48.792;8.582;2023-05-29T05:59:39;11.45;;;4.95;;
20185;SDS011;10252;48.792;8.582;2023-05-29T06:04:40;9.30;;;4.60;;
20185;SDS011;10252;48.792;8.582;2023-05-29T06:09:43;7.53;;;4.88;;
20185;SDS011;10252;48.792;8.582;2023-05-29T06:14:45;12.80;;;5.95;;
20185;SDS011;10252;48.792;8.582;2023-05-29T06:19:46;6.85;;;3.92;;
20185;SDS011;10252;48.792;8.582;2023-05-29T06:24:47;4.65;;;3.67;;
20185;SDS011;10252;48.792;8.582;2023-05-29T06:29:48;8.95;;;4.22;;
20185;SDS011;10252;48.792;8.582;2023-05-29T06:34:49;5.97;;;4.20;;
20185;SDS011;10252;48.792;8.582;2023-05-29T06:39:50;6.63;;;3.70;;
20185;SDS011;10252;48.792;8.582;2023-05-29T06:44:51;3.92;;;3.20;;
20185;SDS011;10252;48.792;8.582;2023-05-29T06:49:52;6.93;;;4.25;;
20185;SDS011;10252;48.792;8.582;2023-05-29T06:54:54;5.90;;;4.20;;
20185;SDS011;10252;48.792;8.582;2023-05-29T06:59:57;5.63;;;3.72;;
20185;SDS011;10252;48.792;8.582;2023-05-29T07:04:58;8.35;;;4.05;;
20185;SDS011;10252;48.792;8.582;2023-05-29T07:10:01;7.85;;;4.45;;
20185;SDS011;10252;48.792;8.582;2023-05-29T07:15:02;6.30;;;4.32;;
20185;SDS011;10252;48.792;8.582;2023-05-29T07:20:04;6.40;;;3.67;;
20185;SDS011;10252;48.792;8.582;2023-05-29T07:25:08;7.13;;;3.50;;
20185;SDS011;10252;48.792;8.582;2023-05-29T07:30:10;5.68;;;3.80;;
20185;SDS011;10252;48.792;8.582;2023-05-29T07:35:11;6.35;;;3.90;;
20185;SDS011;10252;48.792;8.582;2023-05-29T07:40:12;6.18;;;4.00;;
20185;SDS011;10252;48.792;8.582;2023-05-29T07:45:32;4.07;;;3.45;;
20185;SDS011;10252;48.792;8.582;2023-05-29T07:50:33;6.45;;;3.88;;
20185;SDS011;10252;48.792;8.582;2023-05-29T07:55:35;6.88;;;3.92;;
20185;SDS011;10252;48.792;8.582;2023-05-29T08:00:36;6.35;;;3.95;;
20185;SDS011;10252;48.792;8.582;2023-05-29T08:05:39;6.70;;;3.65;;
20185;SDS011;10252;48.792;8.582;2023-05-29T08:10:45;6.78;;;4.25;;
20185;SDS011;10252;48.792;8.582;2023-05-29T08:15:46;5.47;;;4.10;;
20185;SDS011;10252;48.792;8.582;2023-05-29T08:20:47;5.68;;;3.80;;
20185;SDS011;10252;48.792;8.582;2023-05-29T08:25:48;7.65;;;4.50;;
20185;SDS011;10252;48.792;8.582;2023-05-29T08:30:49;6.85;;;4.10;;
20185;SDS011;10252;48.792;8.582;2023-05-29T08:35:50;5.97;;;4.20;;
20185;SDS011;10252;48.792;8.582;2023-05-29T08:40:51;6.75;;;4.50;;
20185;SDS011;10252;48.792;8.582;2023-05-29T08:45:53;5.95;;;3.70;;
20185;SDS011;10252;48.792;8.582;2023-05-29T08:50:55;8.10;;;3.95;;
20185;SDS011;10252;48.792;8.582;2023-05-29T08:55:56;5.28;;;4.05;;
20185;SDS011;10252;48.792;8.582;2023-05-29T09:00:58;4.70;;;3.70;;
20185;SDS011;10252;48.792;8.582;2023-05-29T09:06:00;5.78;;;3.88;;
20185;SDS011;10252;48.792;8.582;2023-05-29T09:11:03;5.60;;;4.05;;
20185;SDS011;10252;48.792;8.582;2023-05-29T09:16:05;10.07;;;4.55;;
20185;SDS011;10252;48.792;8.582;2023-05-29T09:21:07;7.35;;;4.15;;
20185;SDS011;10252;48.792;8.582;2023-05-29T09:26:13;6.30;;;4.53;;
20185;SDS011;10252;48.792;8.582;2023-05-29T09:31:15;6.03;;;4.35;;
20185;SDS011;10252;48.792;8.582;2023-05-29T09:36:22;7.18;;;4.30;;
20185;SDS011;10252;48.792;8.582;2023-05-29T09:41:23;4.43;;;3.92;;
20185;SDS011;10252;48.792;8.582;2023-05-29T09:46:25;6.43;;;4.05;;
20185;SDS011;10252;48.792;8.582;2023-05-29T09:51:26;7.68;;;4.60;;
20185;SDS011;10252;48.792;8.582;2023-05-29T09:56:27;6.40;;;4.60;;
20185;SDS011;10252;48.792;8.582;2023-05-29T10:01:29;6.85;;;4.43;;
20185;SDS011;10252;48.792;8.582;2023-05-29T10:06:30;7.78;;;5.25;;
20185;SDS011;10252;48.792;8.582;2023-05-29T10:11:33;8.82;;;4.38;;
20185;SDS011;10252;48.792;8.582;2023-05-29T10:16:35;6.82;;;4.22;;
20185;SDS011;10252;48.792;8.582;2023-05-29T10:21:42;6.47;;;4.18;;
20185;SDS011;10252;48.792;8.582;2023-05-29T10:26:45;7.65;;;4.30;;
20185;SDS011;10252;48.792;8.582;2023-05-29T10:37:06;8.63;;;4.20;;
20185;SDS011;10252;48.792;8.582;2023-05-29T10:47:46;6.03;;;4.20;;
20185;SDS011;10252;48.792;8.582;2023-05-29T10:52:47;6.63;;;3.72;;
20185;SDS011;10252;48.792;8.582;2023-05-29T10:57:48;8.23;;;4.65;;
20185;SDS011;10252;48.792;8.582;2023-05-29T11:02:49;7.38;;;4.22;;
20185;SDS011;10252;48.792;8.582;2023-05-29T11:07:54;6.25;;;3.70;;
20185;SDS011;10252;48.792;8.582;2023-05-29T11:12:56;7.28;;;4.18;;
20185;SDS011;10252;48.792;8.582;2023-05-29T11:18:05;5.25;;;4.05;;
20185;SDS011;10252;48.792;8.582;2023-05-29T11:23:06;5.20;;;3.45;;
20185;SDS011;10252;48.792;8.582;2023-05-29T11:28:08;5.93;;;4.38;;
20185;SDS011;10252;48.792;8.582;2023-05-29T11:33:13;6.88;;;4.10;;
20185;SDS011;10252;48.792;8.582;2023-05-29T11:38:16;5.72;;;3.90;;
20185;SDS011;10252;48.792;8.582;2023-05-29T11:43:17;6.10;;;4.00;;
20185;SDS011;10252;48.792;8.582;2023-05-29T11:48:18;9.68;;;4.60;;
20185;SDS011;10252;48.792;8.582;2023-05-29T11:53:20;7.82;;;4.35;;
20185;SDS011;10252;48.792;8.582;2023-05-29T11:58:21;7.15;;;4.38;;
20185;SDS011;10252;48.792;8.582;2023-05-29T12:03:22;10.27;;;4.00;;
20185;SDS011;10252;48.792;8.582;2023-05-29T12:08:23;5.68;;;3.58;;
20185;SDS011;10252;48.792;8.582;2023-05-29T12:13:24;5.32;;;3.55;;
20185;SDS011;10252;48.792;8.582;2023-05-29T12:18:25;6.90;;;4.05;;
20185;SDS011;10252;48.792;8.582;2023-05-29T12:23:27;7.30;;;4.03;;
20185;SDS011;10252;48.792;8.582;2023-05-29T12:28:28;6.90;;;4.05;;
20185;SDS011;10252;48.792;8.582;2023-05-29T12:33:32;5.47;;;4.43;;
20185;SDS011;10252;48.792;8.582;2023-05-29T12:38:47;5.55;;;3.40;;
20185;SDS011;10252;48.792;8.582;2023-05-29T12:43:48;8.77;;;4.13;;
20185;SDS011;10252;48.792;8.582;2023-05-29T12:48:52;9.25;;;3.90;;
20185;SDS011;10252;48.792;8.582;2023-05-29T12:53:53;7.25;;;3.97;;
20185;SDS011;10252;48.792;8.582;2023-05-29T12:58:55;6.30;;;4.15;;
20185;SDS011;10252;48.792;8.582;2023-05-29T13:03:56;6.32;;;4.20;;
20185;SDS011;10252;48.792;8.582;2023-05-29T13:08:57;4.55;;;3.47;;
20185;SDS011;10252;48.792;8.582;2023-05-29T13:13:58;6.38;;;3.83;;
20185;SDS011;10252;48.792;8.582;2023-05-29T13:18:59;5.38;;;3.42;;
20185;SDS011;10252;48.792;8.582;2023-05-29T13:24:00;6.88;;;3.85;;
20185;SDS011;10252;48.792;8.582;2023-05-29T13:29:02;4.93;;;3.85;;
20185;SDS011;10252;48.792;8.582;2023-05-29T13:34:03;6.07;;;3.63;;
20185;SDS011;10252;48.792;8.582;2023-05-29T13:39:04;4.97;;;3.72;;
20185;SDS011;10252;48.792;8.582;2023-05-29T13:44:06;4.28;;;3.45;;
20185;SDS011;10252;48.792;8.582;2023-05-29T13:49:07;4.85;;;3.58;;
20185;SDS011;10252;48.792;8.582;2023-05-29T13:54:09;4.18;;;3.20;;
20185;SDS011;10252;48.792;8.582;2023-05-29T13:59:10;5.28;;;3.83;;
20185;SDS011;10252;48.792;8.582;2023-05-29T14:04:11;4.18;;;3.25;;
20185;SDS011;10252;48.792;8.582;2023-05-29T14:09:12;3.92;;;3.53;;
20185;SDS011;10252;48.792;8.582;2023-05-29T14:14:13;5.47;;;3.63;;
20185;SDS011;10252;48.792;8.582;2023-05-29T14:19:15;4.40;;;3.25;;
20185;SDS011;10252;48.792;8.582;2023-05-29T14:24:18;4.55;;;2.75;;
20185;SDS011;10252;48.792;8.582;2023-05-29T14:29:19;4.28;;;3.28;;
20185;SDS011;10252;48.792;8.582;2023-05-29T14:34:20;4.20;;;3.45;;
20185;SDS011;10252;48.792;8.582;2023-05-29T14:39:21;4.18;;;3.42;;
20185;SDS011;10252;48.792;8.582;2023-05-29T14:44:22;3.70;;;2.83;;
20185;SDS011;10252;48.792;8.582;2023-05-29T14:49:26;4.15;;;3.22;;
20185;SDS011;10252;48.792;8.582;2023-05-29T14:54:31;4.07;;;3.20;;
20185;SDS011;10252;48.792;8.582;2023-05-29T14:59:33;3.92;;;3.13;;
20185;SDS011;10252;48.792;8.582;2023-05-29T15:04:34;4.07;;;3.28;;
20185;SDS011;10252;48.792;8.582;2023-05-29T15:09:35;4.57;;;3.70;;
20185;SDS011;10252;48.792;8.582;2023-05-29T15:14:36;4.43;;;3.45;;
20185;SDS011;10252;48.792;8.582;2023-05-29T15:19:37;5.97;;;2.95;;
20185;SDS011;10252;48.792;8.582;2023-05-29T15:24:38;4.78;;;3.03;;
20185;SDS011;10252;48.792;8.582;2023-05-29T15:29:41;3.53;;;3.10;;
20185;SDS011;10252;48.792;8.582;2023-05-29T15:34:42;3.33;;;2.95;;
20185;SDS011;10252;48.792;8.582;2023-05-29T15:39:43;5.18;;;3.28;;
20185;SDS011;10252;48.792;8.582;2023-05-29T15:44:44;3.60;;;3.30;;
20185;SDS011;10252;48.792;8.582;2023-05-29T15:49:45;4.75;;;3.50;;
20185;SDS011;10252;48.792;8.582;2023-05-29T15:54:46;3.28;;;2.75;;
20185;SDS011;10252;48.792;8.582;2023-05-29T15:59:47;3.70;;;3.08;;
20185;SDS011;10252;48.792;8.582;2023-05-29T16:04:49;4.75;;;3.20;;
20185;SDS011;10252;48.792;8.582;2023-05-29T16:09:50;3.95;;;3.45;;
20185;SDS011;10252;48.792;8.582;2023-05-29T16:14:51;3.55;;;3.20;;
20185;SDS011;10252;48.792;8.582;2023-05-29T16:19:52;4.03;;;3.10;;
20185;SDS011;10252;48.792;8.582;2023-05-29T16:24:56;3.88;;;2.50;;
20185;SDS011;10252;48.792;8.582;2023-05-29T16:29:57;4.82;;;2.90;;
20185;SDS011;10252;48.792;8.582;2023-05-29T16:34:58;6.03;;;2.78;;
20185;SDS011;10252;48.792;8.582;2023-05-29T16:39:59;5.53;;;2.90;;
20185;SDS011;10252;48.792;8.582;2023-05-29T16:45:00;7.63;;;3.47;;
20185;SDS011;10252;48.792;8.582;2023-05-29T16:50:01;3.63;;;2.90;;
20185;SDS011;10252;48.792;8.582;2023-05-29T16:55:03;3.30;;;2.38;;
20185;SDS011;10252;48.792;8.582;2023-05-29T17:00:04;3.97;;;2.95;;
20185;SDS011;10252;48.792;8.582;2023-05-29T17:05:06;5.47;;;2.95;;
20185;SDS011;10252;48.792;8.582;2023-05-29T17:10:07;4.35;;;2.63;;
20185;SDS011;10252;48.792;8.582;2023-05-29T17:15:09;4.38;;;3.15;;
20185;SDS011;10252;48.792;8.582;2023-05-29T17:20:11;3.47;;;2.90;;
20185;SDS011;10252;48.792;8.582;2023-05-29T17:25:14;3.15;;;2.85;;
20185;SDS011;10252;48.792;8.582;2023-05-29T17:30:15;3.40;;;2.92;;
20185;SDS011;10252;48.792;8.582;2023-05-29T17:35:16;3.80;;;3.13;;
20185;SDS011;10252;48.792;8.582;2023-05-29T17:40:17;4.03;;;3.08;;
20185;SDS011;10252;48.792;8.582;2023-05-29T17:45:21;6.00;;;3.13;;
20185;SDS011;10252;48.792;8.582;2023-05-29T17:50:22;8.40;;;2.95;;
20185;SDS011;10252;48.792;8.582;2023-05-29T17:55:23;6.97;;;4.07;;
20185;SDS011;10252;48.792;8.582;2023-05-29T18:00:24;5.00;;;3.15;;
20185;SDS011;10252;48.792;8.582;2023-05-29T18:05:25;5.05;;;2.75;;
20185;SDS011;10252;48.792;8.582;2023-05-29T18:10:26;3.72;;;3.20;;
20185;SDS011;10252;48.792;8.582;2023-05-29T18:15:28;4.45;;;2.70;;
20185;SDS011;10252;48.792;8.582;2023-05-29T18:20:29;4.38;;;2.88;;
20185;SDS011;10252;48.792;8.582;2023-05-29T18:25:30;4.50;;;3.13;;
20185;SDS011;10252;48.792;8.582;2023-05-29T18:30:33;5.10;;;2.88;;
20185;SDS011;10252;48.792;8.582;2023-05-29T18:35:35;6.75;;;3.60;;
20185;SDS011;10252;48.792;8.582;2023-05-29T18:40:36;6.13;;;3.78;;
20185;SDS011;10252;48.792;8.582;2023-05-29T18:45:37;5.20;;;2.60;;
20185;SDS011;10252;48.792;8.582;2023-05-29T18:50:40;4.05;;;3.10;;
20185;SDS011;10252;48.792;8.582;2023-05-29T18:55:41;3.40;;;2.97;;
20185;SDS011;10252;48.792;8.582;2023-05-29T19:00:42;4.25;;;2.63;;
20185;SDS011;10252;48.792;8.582;2023-05-29T19:05:43;3.50;;;2.80;;
20185;SDS011;10252;48.792;8.582;2023-05-29T19:10:44;4.05;;;3.03;;
20185;SDS011;10252;48.792;8.582;2023-05-29T19:15:45;4.35;;;2.72;;
20185;SDS011;10252;48.792;8.582;2023-05-29T19:20:46;4.55;;;2.80;;
20185;SDS011;10252;48.792;8.582;2023-05-29T19:25:47;9.07;;;3.42;;
20185;SDS011;10252;48.792;8.582;2023-05-29T19:30:48;5.80;;;3.08;;
20185;SDS011;10252;48.792;8.582;2023-05-29T19:35:49;6.22;;;3.00;;
20185;SDS011;10252;48.792;8.582;2023-05-29T19:40:50;3.88;;;3.20;;
20185;SDS011;10252;48.792;8.582;2023-05-29T19:45:51;4.78;;;2.97;;
20185;SDS011;10252;48.792;8.582;2023-05-29T19:50:52;7.75;;;5.22;;
20185;SDS011;10252;48.792;8.582;2023-05-29T19:55:54;7.32;;;3.30;;
20185;SDS011;10252;48.792;8.582;2023-05-29T20:00:56;3.88;;;3.10;;
20185;SDS011;10252;48.792;8.582;2023-05-29T20:05:58;5.35;;;3.20;;
20185;SDS011;10252;48.792;8.582;2023-05-29T20:10:59;4.80;;;3.60;;
20185;SDS011;10252;48.792;8.582;2023-05-29T20:16:00;6.28;;;3.47;;
20185;SDS011;10252;48.792;8.582;2023-05-29T20:21:01;5.20;;;3.42;;
20185;SDS011;10252;48.792;8.582;2023-05-29T20:26:02;4.95;;;3.28;;
20185;SDS011;10252;48.792;8.582;2023-05-29T20:31:03;4.35;;;3.22;;
20185;SDS011;10252;48.792;8.582;2023-05-29T20:36:06;5.32;;;3.70;;
20185;SDS011;10252;48.792;8.582;2023-05-29T20:41:07;5.78;;;3.17;;
20185;SDS011;10252;48.792;8.582;2023-05-29T20:46:09;6.03;;;3.47;;
20185;SDS011;10252;48.792;8.582;2023-05-29T20:51:10;7.20;;;3.97;;
20185;SDS011;10252;48.792;8.582;2023-05-29T20:56:12;4.03;;;3.00;;
20185;SDS011;10252;48.792;8.582;2023-05-29T21:01:14;6.05;;;3.78;;
20185;SDS011;10252;48.792;8.582;2023-05-29T21:06:15;5.97;;;3.72;;
20185;SDS011;10252;48.792;8.582;2023-05-29T21:11:16;6.80;;;3.67;;
20185;SDS011;10252;48.792;8.582;2023-05-29T21:16:18;4.68;;;3.88;;
20185;SDS011;10252;48.792;8.582;2023-05-29T21:21:19;4.60;;;3.60;;
20185;SDS011;10252;48.792;8.582;2023-05-29T21:26:21;5.60;;;3.63;;
20185;SDS011;10252;48.792;8.582;2023-05-29T21:31:22;4.57;;;3.60;;
20185;SDS011;10252;48.792;8.582;2023-05-29T21:36:23;6.70;;;4.30;;
20185;SDS011;10252;48.792;8.582;2023-05-29T21:41:24;5.70;;;3.78;;
20185;SDS011;10252;48.792;8.582;2023-05-29T21:46:25;4.68;;;3.80;;
20185;SDS011;10252;48.792;8.582;2023-05-29T21:51:26;9.45;;;4.95;;
20185;SDS011;10252;48.792;8.582;2023-05-29T21:56:27;6.47;;;4.03;;
20185;SDS011;10252;48.792;8.582;2023-05-29T22:01:29;5.25;;;3.83;;
20185;SDS011;10252;48.792;8.582;2023-05-29T22:06:31;6.50;;;4.10;;
20185;SDS011;10252;48.792;8.582;2023-05-29T22:11:32;9.95;;;4.85;;
20185;SDS011;10252;48.792;8.582;2023-05-29T22:16:34;6.43;;;4.07;;
20185;SDS011;10252;48.792;8.582;2023-05-29T22:21:35;5.50;;;3.97;;
20185;SDS011;10252;48.792;8.582;2023-05-29T22:26:36;6.07;;;4.20;;
20185;SDS011;10252;48.792;8.582;2023-05-29T22:31:37;4.38;;;3.95;;
20185;SDS011;10252;48.792;8.582;2023-05-29T22:36:38;7.30;;;4.32;;
20185;SDS011;10252;48.792;8.582;2023-05-29T22:41:40;6.43;;;4.22;;
20185;SDS011;10252;48.792;8.582;2023-05-29T22:46:42;7.05;;;4.00;;
20185;SDS011;10252;48.792;8.582;2023-05-29T22:51:43;5.93;;;4.10;;
20185;SDS011;10252;48.792;8.582;2023-05-29T22:56:45;5.75;;;4.25;;
20185;SDS011;10252;48.792;8.582;2023-05-29T23:01:46;4.65;;;3.78;;
20185;SDS011;10252;48.792;8.582;2023-05-29T23:06:50;7.30;;;4.20;;
20185;SDS011;10252;48.792;8.582;2023-05-29T23:11:51;5.07;;;4.05;;
20185;SDS011;10252;48.792;8.582;2023-05-29T23:16:52;7.85;;;4.43;;
20185;SDS011;10252;48.792;8.582;2023-05-29T23:21:53;6.40;;;4.03;;
20185;SDS011;10252;48.792;8.582;2023-05-29T23:26:54;4.50;;;3.85;;
20185;SDS011;10252;48.792;8.582;2023-05-29T23:31:55;5.65;;;4.15;;
20185;SDS011;10252;48.792;8.582;2023-05-29T23:36:56;8.25;;;4.68;;
20185;SDS011;10252;48.792;8.582;2023-05-29T23:41:57;5.97;;;4.13;;
20185;SDS011;10252;48.792;8.582;2023-05-29T23:46:58;7.20;;;4.45;;
20185;SDS011;10252;48.792;8.582;2023-05-29T23:52:00;6.82;;;4.30;;
20185;SDS011;10252;48.792;8.582;2023-05-29T23:57:02;6.13;;;4.55;;
